sensor_id;sensor_type;location;lat;lon;timestamp;pressure;altitude;pressure_sealevel;temperature;humidity
32735;BME280;19112;51.076;3.706;2024-01-16T00:00:10;101055.81;;;5.67;62.54
32735;BME280;19112;51.076;3.706;2024-01-16T00:02:35;100972.44;;;5.05;62.38
32735;BME280;19112;51.076;3.706;2024-01-16T00:05:06;101036.91;;;5.40;63.29
32735;BME280;19112;51.076;3.706;2024-01-16T00:07:39;101063.28;;;5.46;63.05
32735;BME280;19112;51.076;3.706;2024-01-16T00:10:07;101101.81;;;5.37;63.30
32735;BME280;19112;51.076;3.706;2024-01-16T00:12:35;100968.53;;;4.67;63.73
32735;BME280;19112;51.076;3.706;2024-01-16T00:15:01;101028.09;;;4.92;63.23
32735;BME280;19112;51.076;3.706;2024-01-16T00:17:27;101021.16;;;4.78;63.66
32735;BME280;19112;51.076;3.706;2024-01-16T00:19:53;101070.13;;;4.99;63.55
32735;BME280;19112;51.076;3.706;2024-01-16T00:22:20;100981.44;;;4.51;63.08
32735;BME280;19112;51.076;3.706;2024-01-16T00:24:45;101064.31;;;4.89;63.74
32735;BME280;19112;51.076;3.706;2024-01-16T00:27:11;101055.41;;;4.70;63.85
32735;BME280;19112;51.076;3.706;2024-01-16T00:29:38;100791.63;;;3.18;64.44
32735;BME280;19112;51.076;3.706;2024-01-16T00:32:04;101058.72;;;4.68;64.23
32735;BME280;19112;51.076;3.706;2024-01-16T00:34:30;101027.13;;;4.47;64.54
32735;BME280;19112;51.076;3.706;2024-01-16T00:36:59;101062.66;;;4.61;65.28
32735;BME280;19112;51.076;3.706;2024-01-16T00:39:26;100945.78;;;3.90;65.47
32735;BME280;19112;51.076;3.706;2024-01-16T00:41:51;101065.50;;;4.51;64.98
32735;BME280;19112;51.076;3.706;2024-01-16T00:44:17;100975.03;;;3.88;65.31
32735;BME280;19112;51.076;3.706;2024-01-16T00:46:43;101023.66;;;4.18;65.31
32735;BME280;19112;51.076;3.706;2024-01-16T00:49:09;100946.44;;;3.73;65.32
32735;BME280;19112;51.076;3.706;2024-01-16T00:51:35;101063.69;;;4.35;65.63
32735;BME280;19112;51.076;3.706;2024-01-16T00:54:01;100942.16;;;3.60;65.65
32735;BME280;19112;51.076;3.706;2024-01-16T00:56:27;101035.19;;;4.09;65.72
32735;BME280;19112;51.076;3.706;2024-01-16T00:58:53;101070.81;;;4.25;65.57
32735;BME280;19112;51.076;3.706;2024-01-16T01:01:22;101002.84;;;3.76;66.08
32735;BME280;19112;51.076;3.706;2024-01-16T01:03:48;100959.50;;;3.47;66.09
32735;BME280;19112;51.076;3.706;2024-01-16T01:06:14;101071.84;;;4.13;66.36
32735;BME280;19112;51.076;3.706;2024-01-16T01:08:40;101028.19;;;3.80;66.29
32735;BME280;19112;51.076;3.706;2024-01-16T01:11:06;100767.19;;;2.31;66.43
32735;BME280;19112;51.076;3.706;2024-01-16T01:13:32;100959.41;;;3.32;66.39
32735;BME280;19112;51.076;3.706;2024-01-16T01:15:58;101078.06;;;4.02;66.91
32735;BME280;19112;51.076;3.706;2024-01-16T01:18:24;100991.56;;;3.62;66.68
32735;BME280;19112;51.076;3.706;2024-01-16T01:20:51;101065.81;;;4.00;66.54
32735;BME280;19112;51.076;3.706;2024-01-16T01:23:17;101017.44;;;3.60;66.75
32735;BME280;19112;51.076;3.706;2024-01-16T01:25:45;100922.41;;;3.08;66.54
32735;BME280;19112;51.076;3.706;2024-01-16T01:28:11;101074.81;;;3.91;66.23
32735;BME280;19112;51.076;3.706;2024-01-16T01:30:38;101075.69;;;3.92;66.69
32735;BME280;19112;51.076;3.706;2024-01-16T01:33:04;101066.72;;;3.87;67.12
32735;BME280;19112;51.076;3.706;2024-01-16T01:35:30;100948.94;;;3.17;66.68
32735;BME280;19112;51.076;3.706;2024-01-16T01:37:56;100979.44;;;3.34;66.64
32735;BME280;19112;51.076;3.706;2024-01-16T01:40:23;101080.50;;;3.86;66.85
32735;BME280;19112;51.076;3.706;2024-01-16T01:42:49;101060.84;;;3.89;66.85
32735;BME280;19112;51.076;3.706;2024-01-16T01:45:15;101071.50;;;3.94;66.18
32735;BME280;19112;51.076;3.706;2024-01-16T01:47:42;101054.66;;;3.74;66.52
32735;BME280;19112;51.076;3.706;2024-01-16T01:50:09;101027.09;;;3.76;66.52
32735;BME280;19112;51.076;3.706;2024-01-16T01:52:39;101036.44;;;3.87;66.44
32735;BME280;19112;51.076;3.706;2024-01-16T01:55:11;101000.84;;;3.72;65.98
32735;BME280;19112;51.076;3.706;2024-01-16T01:57:37;101001.66;;;3.71;66.44
32735;BME280;19112;51.076;3.706;2024-01-16T02:00:03;100974.22;;;3.61;66.39
32735;BME280;19112;51.076;3.706;2024-01-16T02:02:32;101009.13;;;3.79;66.44
32735;BME280;19112;51.076;3.706;2024-01-16T02:04:58;101019.69;;;3.82;66.14
32735;BME280;19112;51.076;3.706;2024-01-16T02:07:24;101021.38;;;3.82;65.92
32735;BME280;19112;51.076;3.706;2024-01-16T02:09:50;101070.72;;;3.95;66.12
32735;BME280;19112;51.076;3.706;2024-01-16T02:12:16;101064.50;;;3.93;66.02
32735;BME280;19112;51.076;3.706;2024-01-16T02:14:42;101064.72;;;3.96;65.58
32735;BME280;19112;51.076;3.706;2024-01-16T02:17:08;101061.00;;;3.92;66.42
32735;BME280;19112;51.076;3.706;2024-01-16T02:19:36;101055.00;;;3.93;66.28
32735;BME280;19112;51.076;3.706;2024-01-16T02:22:04;101057.44;;;3.90;66.29
32735;BME280;19112;51.076;3.706;2024-01-16T02:24:35;100949.03;;;3.32;66.03
32735;BME280;19112;51.076;3.706;2024-01-16T02:27:01;100795.38;;;2.40;65.44
32735;BME280;19112;51.076;3.706;2024-01-16T02:29:27;101053.31;;;3.94;65.31
32735;BME280;19112;51.076;3.706;2024-01-16T02:31:53;100917.03;;;3.05;65.18
32735;BME280;19112;51.076;3.706;2024-01-16T02:34:18;100926.19;;;3.13;65.46
32735;BME280;19112;51.076;3.706;2024-01-16T02:36:44;100994.13;;;3.47;65.57
32735;BME280;19112;51.076;3.706;2024-01-16T02:39:10;100905.06;;;3.07;65.66
32735;BME280;19112;51.076;3.706;2024-01-16T02:41:37;101000.38;;;3.64;65.34
32735;BME280;19112;51.076;3.706;2024-01-16T02:44:03;101049.13;;;3.96;65.20
32735;BME280;19112;51.076;3.706;2024-01-16T02:46:29;101045.72;;;3.97;65.29
32735;BME280;19112;51.076;3.706;2024-01-16T02:48:54;100990.88;;;3.64;65.03
32735;BME280;19112;51.076;3.706;2024-01-16T02:51:21;100970.44;;;3.56;65.04
32735;BME280;19112;51.076;3.706;2024-01-16T02:53:47;101056.56;;;4.05;65.23
32735;BME280;19112;51.076;3.706;2024-01-16T02:56:13;100952.56;;;3.60;65.27
32735;BME280;19112;51.076;3.706;2024-01-16T02:58:38;100896.84;;;3.27;64.95
32735;BME280;19112;51.076;3.706;2024-01-16T03:01:04;100739.38;;;2.42;64.98
32735;BME280;19112;51.076;3.706;2024-01-16T03:03:30;100927.72;;;3.51;64.66
32735;BME280;19112;51.076;3.706;2024-01-16T03:05:56;100857.50;;;3.06;64.81
32735;BME280;19112;51.076;3.706;2024-01-16T03:08:22;100888.97;;;3.26;64.87
32735;BME280;19112;51.076;3.706;2024-01-16T03:10:48;100952.16;;;3.67;64.81
32735;BME280;19112;51.076;3.706;2024-01-16T03:13:14;100899.31;;;3.39;64.61
32735;BME280;19112;51.076;3.706;2024-01-16T03:15:40;100759.28;;;2.56;64.92
32735;BME280;19112;51.076;3.706;2024-01-16T03:18:06;100727.22;;;2.41;64.73
32735;BME280;19112;51.076;3.706;2024-01-16T03:20:32;100808.28;;;2.93;64.52
32735;BME280;19112;51.076;3.706;2024-01-16T03:22:58;100947.13;;;3.71;64.72
32735;BME280;19112;51.076;3.706;2024-01-16T03:25:24;101012.91;;;4.12;64.42
32735;BME280;19112;51.076;3.706;2024-01-16T03:27:49;100945.63;;;3.74;64.47
32735;BME280;19112;51.076;3.706;2024-01-16T03:30:18;101022.97;;;4.21;64.66
32735;BME280;19112;51.076;3.706;2024-01-16T03:32:44;100958.53;;;3.87;63.98
32735;BME280;19112;51.076;3.706;2024-01-16T03:35:10;101017.88;;;4.23;64.44
32735;BME280;19112;51.076;3.706;2024-01-16T03:37:38;101010.88;;;4.22;64.25
32735;BME280;19112;51.076;3.706;2024-01-16T03:40:05;101015.84;;;4.32;63.70
32735;BME280;19112;51.076;3.706;2024-01-16T03:42:31;100854.75;;;3.46;63.16
32735;BME280;19112;51.076;3.706;2024-01-16T03:44:57;101010.53;;;4.30;63.81
32735;BME280;19112;51.076;3.706;2024-01-16T03:47:22;101003.44;;;4.28;63.75
32735;BME280;19112;51.076;3.706;2024-01-16T03:49:49;101005.69;;;4.22;63.30
32735;BME280;19112;51.076;3.706;2024-01-16T03:52:16;100796.44;;;3.11;63.47
32735;BME280;19112;51.076;3.706;2024-01-16T03:54:42;100929.53;;;3.80;63.23
32735;BME280;19112;51.076;3.706;2024-01-16T03:57:08;100921.16;;;3.71;63.51
32735;BME280;19112;51.076;3.706;2024-01-16T03:59:37;100885.97;;;3.61;63.06
32735;BME280;19112;51.076;3.706;2024-01-16T04:02:05;100934.88;;;3.83;63.22
32735;BME280;19112;51.076;3.706;2024-01-16T04:04:36;100898.69;;;3.71;63.06
32735;BME280;19112;51.076;3.706;2024-01-16T04:07:02;100822.06;;;3.20;62.85
32735;BME280;19112;51.076;3.706;2024-01-16T04:09:29;100973.75;;;4.09;62.96
32735;BME280;19112;51.076;3.706;2024-01-16T04:11:54;100932.50;;;3.86;62.81
32735;BME280;19112;51.076;3.706;2024-01-16T04:14:20;100822.13;;;3.22;62.68
32735;BME280;19112;51.076;3.706;2024-01-16T04:16:47;100935.38;;;3.90;62.79
32735;BME280;19112;51.076;3.706;2024-01-16T04:19:13;100924.41;;;3.81;62.47
32735;BME280;19112;51.076;3.706;2024-01-16T04:21:40;100663.53;;;2.45;62.39
32735;BME280;19112;51.076;3.706;2024-01-16T04:24:06;100963.56;;;4.12;62.61
32735;BME280;19112;51.076;3.706;2024-01-16T04:26:36;100695.88;;;2.65;62.40
32735;BME280;19112;51.076;3.706;2024-01-16T04:29:03;100920.94;;;3.81;62.07
32735;BME280;19112;51.076;3.706;2024-01-16T04:31:29;100966.69;;;4.07;62.54
32735;BME280;19112;51.076;3.706;2024-01-16T04:33:55;100773.94;;;2.97;62.11
32735;BME280;19112;51.076;3.706;2024-01-16T04:36:21;100913.59;;;3.74;62.64
32735;BME280;19112;51.076;3.706;2024-01-16T04:38:48;100960.59;;;4.06;62.53
32735;BME280;19112;51.076;3.706;2024-01-16T04:41:18;100887.06;;;3.64;62.45
32735;BME280;19112;51.076;3.706;2024-01-16T04:43:45;100820.81;;;3.28;62.25
32735;BME280;19112;51.076;3.706;2024-01-16T04:46:11;100948.53;;;3.93;62.11
32735;BME280;19112;51.076;3.706;2024-01-16T04:48:37;100885.06;;;3.60;61.97
32735;BME280;19112;51.076;3.706;2024-01-16T04:51:03;100960.75;;;3.94;61.69
32735;BME280;19112;51.076;3.706;2024-01-16T04:53:29;100963.50;;;3.98;61.95
32735;BME280;19112;51.076;3.706;2024-01-16T04:55:56;100919.09;;;3.65;61.76
32735;BME280;19112;51.076;3.706;2024-01-16T04:58:21;100963.13;;;3.91;62.20
32735;BME280;19112;51.076;3.706;2024-01-16T05:00:47;100802.44;;;3.10;61.90
32735;BME280;19112;51.076;3.706;2024-01-16T05:03:13;100953.84;;;3.95;61.78
32735;BME280;19112;51.076;3.706;2024-01-16T05:05:39;100954.91;;;3.99;61.27
32735;BME280;19112;51.076;3.706;2024-01-16T05:08:05;100882.91;;;3.53;61.27
32735;BME280;19112;51.076;3.706;2024-01-16T05:10:31;100649.75;;;2.18;61.21
32735;BME280;19112;51.076;3.706;2024-01-16T05:12:56;100947.28;;;3.87;61.45
32735;BME280;19112;51.076;3.706;2024-01-16T05:15:22;100949.50;;;3.81;61.31
32735;BME280;19112;51.076;3.706;2024-01-16T05:17:48;100952.69;;;3.77;61.71
32735;BME280;19112;51.076;3.706;2024-01-16T05:20:14;100915.53;;;3.50;61.20
32735;BME280;19112;51.076;3.706;2024-01-16T05:22:40;100951.44;;;3.70;61.24
32735;BME280;19112;51.076;3.706;2024-01-16T05:25:06;100920.66;;;3.35;61.63
32735;BME280;19112;51.076;3.706;2024-01-16T05:27:35;100797.53;;;2.74;61.56
32735;BME280;19112;51.076;3.706;2024-01-16T05:30:01;100946.97;;;3.54;61.60
32735;BME280;19112;51.076;3.706;2024-01-16T05:32:27;100689.44;;;2.03;61.47
32735;BME280;19112;51.076;3.706;2024-01-16T05:34:52;100933.41;;;3.45;61.89
32735;BME280;19112;51.076;3.706;2024-01-16T05:37:19;100868.88;;;2.95;62.02
32735;BME280;19112;51.076;3.706;2024-01-16T05:39:46;100426.66;;;0.46;61.83
32735;BME280;19112;51.076;3.706;2024-01-16T05:42:12;100941.84;;;3.28;61.83
32735;BME280;19112;51.076;3.706;2024-01-16T05:44:38;100936.19;;;3.20;62.30
32735;BME280;19112;51.076;3.706;2024-01-16T05:47:04;100944.72;;;3.19;62.34
32735;BME280;19112;51.076;3.706;2024-01-16T05:49:31;100647.22;;;1.51;62.45
32735;BME280;19112;51.076;3.706;2024-01-16T05:51:57;100797.75;;;2.37;62.30
32735;BME280;19112;51.076;3.706;2024-01-16T05:54:24;100944.34;;;3.26;62.20
32735;BME280;19112;51.076;3.706;2024-01-16T05:56:50;100812.81;;;2.43;62.35
32735;BME280;19112;51.076;3.706;2024-01-16T05:59:16;100908.63;;;3.09;62.35
32735;BME280;19112;51.076;3.706;2024-01-16T06:01:42;100938.75;;;3.33;62.05
32735;BME280;19112;51.076;3.706;2024-01-16T06:04:08;100934.22;;;3.44;61.98
32735;BME280;19112;51.076;3.706;2024-01-16T06:06:34;100935.22;;;3.46;62.18
32735;BME280;19112;51.076;3.706;2024-01-16T06:09:00;100846.53;;;2.97;62.14
32735;BME280;19112;51.076;3.706;2024-01-16T06:11:33;100619.19;;;1.71;61.64
32735;BME280;19112;51.076;3.706;2024-01-16T06:14:00;100726.53;;;2.30;62.03
32735;BME280;19112;51.076;3.706;2024-01-16T06:16:27;100904.94;;;3.32;62.08
32735;BME280;19112;51.076;3.706;2024-01-16T06:18:53;100941.91;;;3.42;61.93
32735;BME280;19112;51.076;3.706;2024-01-16T06:21:19;100894.38;;;3.15;61.95
32735;BME280;19112;51.076;3.706;2024-01-16T06:23:46;100768.13;;;2.60;61.83
32735;BME280;19112;51.076;3.706;2024-01-16T06:26:12;100762.19;;;2.48;62.01
32735;BME280;19112;51.076;3.706;2024-01-16T06:28:38;100671.41;;;2.05;61.50
32735;BME280;19112;51.076;3.706;2024-01-16T06:31:05;100778.00;;;2.66;62.05
32735;BME280;19112;51.076;3.706;2024-01-16T06:33:31;100772.81;;;2.66;61.42
32735;BME280;19112;51.076;3.706;2024-01-16T06:35:57;100942.06;;;3.59;61.71
32735;BME280;19112;51.076;3.706;2024-01-16T06:38:23;100940.16;;;3.56;61.68
32735;BME280;19112;51.076;3.706;2024-01-16T06:40:50;100735.88;;;2.42;61.57
32735;BME280;19112;51.076;3.706;2024-01-16T06:43:18;100889.44;;;3.33;61.29
32735;BME280;19112;51.076;3.706;2024-01-16T06:45:45;100927.19;;;3.56;61.73
32735;BME280;19112;51.076;3.706;2024-01-16T06:48:11;100922.00;;;3.56;61.67
32735;BME280;19112;51.076;3.706;2024-01-16T06:50:36;100841.94;;;3.06;61.65
32735;BME280;19112;51.076;3.706;2024-01-16T06:53:02;100845.31;;;3.05;61.58
32735;BME280;19112;51.076;3.706;2024-01-16T06:55:28;100864.25;;;3.18;61.17
32735;BME280;19112;51.076;3.706;2024-01-16T06:57:55;100944.63;;;3.72;61.50
32735;BME280;19112;51.076;3.706;2024-01-16T07:00:21;100649.28;;;1.97;61.45
32735;BME280;19112;51.076;3.706;2024-01-16T07:02:49;100950.91;;;3.76;61.37
32735;BME280;19112;51.076;3.706;2024-01-16T07:05:17;100828.75;;;3.17;61.22
32735;BME280;19112;51.076;3.706;2024-01-16T07:07:42;100685.56;;;2.38;60.84
32735;BME280;19112;51.076;3.706;2024-01-16T07:10:09;100936.78;;;3.85;61.00
32735;BME280;19112;51.076;3.706;2024-01-16T07:12:39;100938.66;;;3.88;60.42
32735;BME280;19112;51.076;3.706;2024-01-16T07:15:06;100861.41;;;3.41;61.04
32735;BME280;19112;51.076;3.706;2024-01-16T07:17:33;100944.75;;;3.88;60.60
32735;BME280;19112;51.076;3.706;2024-01-16T07:19:59;100856.22;;;3.41;60.39
32735;BME280;19112;51.076;3.706;2024-01-16T07:22:25;100828.22;;;3.22;60.38
32735;BME280;19112;51.076;3.706;2024-01-16T07:24:50;100616.31;;;2.07;60.28
32735;BME280;19112;51.076;3.706;2024-01-16T07:27:16;100787.28;;;3.03;60.63
32735;BME280;19112;51.076;3.706;2024-01-16T07:29:42;100792.66;;;3.06;60.41
32735;BME280;19112;51.076;3.706;2024-01-16T07:32:08;100941.03;;;3.98;60.20
32735;BME280;19112;51.076;3.706;2024-01-16T07:34:36;100902.69;;;3.79;59.91
32735;BME280;19112;51.076;3.706;2024-01-16T07:37:02;100945.16;;;4.09;59.97
32735;BME280;19112;51.076;3.706;2024-01-16T07:39:28;100798.97;;;3.25;59.75
32735;BME280;19112;51.076;3.706;2024-01-16T07:41:54;100783.91;;;3.04;59.57
32735;BME280;19112;51.076;3.706;2024-01-16T07:44:20;100764.13;;;3.06;59.63
32735;BME280;19112;51.076;3.706;2024-01-16T07:46:45;100865.03;;;3.58;58.98
32735;BME280;19112;51.076;3.706;2024-01-16T07:49:11;100864.59;;;3.65;59.24
32735;BME280;19112;51.076;3.706;2024-01-16T07:51:37;100934.00;;;4.10;58.73
32735;BME280;19112;51.076;3.706;2024-01-16T07:54:08;100668.25;;;2.65;58.56
32735;BME280;19112;51.076;3.706;2024-01-16T07:56:36;100954.69;;;4.24;58.84
32735;BME280;19112;51.076;3.706;2024-01-16T07:59:02;100752.16;;;3.08;58.58
32735;BME280;19112;51.076;3.706;2024-01-16T08:01:31;100765.31;;;3.11;58.95
32735;BME280;19112;51.076;3.706;2024-01-16T08:03:59;100890.31;;;3.75;58.96
32735;BME280;19112;51.076;3.706;2024-01-16T08:06:26;100895.88;;;3.81;58.28
32735;BME280;19112;51.076;3.706;2024-01-16T08:08:52;100686.75;;;2.56;58.43
32735;BME280;19112;51.076;3.706;2024-01-16T08:11:24;100979.53;;;4.33;58.51
32735;BME280;19112;51.076;3.706;2024-01-16T08:13:50;100983.03;;;4.34;58.59
32735;BME280;19112;51.076;3.706;2024-01-16T08:16:17;100986.59;;;4.36;58.01
32735;BME280;19112;51.076;3.706;2024-01-16T08:18:43;100862.00;;;3.65;57.43
32735;BME280;19112;51.076;3.706;2024-01-16T08:21:09;100986.28;;;4.44;57.45
32735;BME280;19112;51.076;3.706;2024-01-16T08:23:35;100985.66;;;4.49;57.54
32735;BME280;19112;51.076;3.706;2024-01-16T08:26:01;100927.81;;;4.23;57.06
32735;BME280;19112;51.076;3.706;2024-01-16T08:28:27;100830.41;;;3.57;56.93
32735;BME280;19112;51.076;3.706;2024-01-16T08:30:53;100969.41;;;4.38;57.78
32735;BME280;19112;51.076;3.706;2024-01-16T08:33:19;100836.41;;;3.71;57.32
32735;BME280;19112;51.076;3.706;2024-01-16T08:35:45;100864.72;;;3.96;57.49
32735;BME280;19112;51.076;3.706;2024-01-16T08:38:10;100919.69;;;4.32;56.82
32735;BME280;19112;51.076;3.706;2024-01-16T08:40:37;100888.03;;;4.09;56.84
32735;BME280;19112;51.076;3.706;2024-01-16T08:43:03;100906.84;;;4.20;56.98
32735;BME280;19112;51.076;3.706;2024-01-16T08:45:30;100966.81;;;4.53;56.70
32735;BME280;19112;51.076;3.706;2024-01-16T08:47:56;100823.25;;;3.68;57.26
32735;BME280;19112;51.076;3.706;2024-01-16T08:50:23;100945.50;;;4.43;57.36
32735;BME280;19112;51.076;3.706;2024-01-16T08:52:49;100954.25;;;4.45;57.30
32735;BME280;19112;51.076;3.706;2024-01-16T08:55:16;100936.16;;;4.47;57.17
32735;BME280;19112;51.076;3.706;2024-01-16T08:57:41;100933.75;;;4.50;56.74
32735;BME280;19112;51.076;3.706;2024-01-16T09:00:08;100806.34;;;3.75;56.60
32735;BME280;19112;51.076;3.706;2024-01-16T09:02:35;100935.63;;;4.53;56.58
32735;BME280;19112;51.076;3.706;2024-01-16T09:05:01;100770.84;;;3.60;56.00
32735;BME280;19112;51.076;3.706;2024-01-16T09:07:28;100611.78;;;2.59;56.06
32735;BME280;19112;51.076;3.706;2024-01-16T09:09:54;100893.06;;;4.21;56.02
32735;BME280;19112;51.076;3.706;2024-01-16T09:12:20;100751.97;;;3.48;56.21
32735;BME280;19112;51.076;3.706;2024-01-16T09:14:46;100866.25;;;4.07;56.34
32735;BME280;19112;51.076;3.706;2024-01-16T09:17:12;100784.94;;;3.64;56.44
32735;BME280;19112;51.076;3.706;2024-01-16T09:19:38;100831.59;;;3.92;56.12
32735;BME280;19112;51.076;3.706;2024-01-16T09:22:04;100868.13;;;4.10;56.31
32735;BME280;19112;51.076;3.706;2024-01-16T09:24:31;100923.34;;;4.50;55.88
32735;BME280;19112;51.076;3.706;2024-01-16T09:26:58;100904.44;;;4.38;56.35
32735;BME280;19112;51.076;3.706;2024-01-16T09:29:24;100696.38;;;3.15;56.27
32735;BME280;19112;51.076;3.706;2024-01-16T09:31:50;100768.19;;;3.59;56.10
32735;BME280;19112;51.076;3.706;2024-01-16T09:34:17;100932.84;;;4.50;55.61
32735;BME280;19112;51.076;3.706;2024-01-16T09:36:43;100879.44;;;4.25;56.28
32735;BME280;19112;51.076;3.706;2024-01-16T09:39:09;100847.72;;;4.01;55.73
32735;BME280;19112;51.076;3.706;2024-01-16T09:41:40;100485.09;;;1.50;56.24
32735;BME280;19112;51.076;3.706;2024-01-16T09:44:08;100848.03;;;3.78;56.08
32735;BME280;19112;51.076;3.706;2024-01-16T09:46:37;100936.69;;;4.41;56.06
32735;BME280;19112;51.076;3.706;2024-01-16T09:49:03;100818.22;;;3.71;55.77
32735;BME280;19112;51.076;3.706;2024-01-16T09:51:29;100846.56;;;3.96;56.17
32735;BME280;19112;51.076;3.706;2024-01-16T09:53:55;100741.41;;;3.30;56.37
32735;BME280;19112;51.076;3.706;2024-01-16T09:56:23;100709.16;;;3.12;56.12
32735;BME280;19112;51.076;3.706;2024-01-16T09:59:01;100936.63;;;4.40;56.07
32735;BME280;19112;51.076;3.706;2024-01-16T10:01:31;100927.09;;;4.40;56.25
32735;BME280;19112;51.076;3.706;2024-01-16T10:03:59;100643.38;;;2.82;55.82
32735;BME280;19112;51.076;3.706;2024-01-16T10:06:27;100855.25;;;4.11;56.07
32735;BME280;19112;51.076;3.706;2024-01-16T10:08:55;100932.66;;;4.61;55.85
32735;BME280;19112;51.076;3.706;2024-01-16T10:11:21;100920.13;;;4.69;55.88
32735;BME280;19112;51.076;3.706;2024-01-16T10:13:48;100917.59;;;4.70;55.64
32735;BME280;19112;51.076;3.706;2024-01-16T10:16:14;100623.28;;;3.07;55.72
32735;BME280;19112;51.076;3.706;2024-01-16T10:18:40;100927.53;;;4.78;54.97
32735;BME280;19112;51.076;3.706;2024-01-16T10:21:28;100798.81;;;4.24;55.17
32735;BME280;19112;51.076;3.706;2024-01-16T10:24:11;100924.31;;;4.96;54.96
32735;BME280;19112;51.076;3.706;2024-01-16T10:26:39;100842.31;;;4.57;55.06
32735;BME280;19112;51.076;3.706;2024-01-16T10:29:04;100814.03;;;4.32;54.76
32735;BME280;19112;51.076;3.706;2024-01-16T10:31:30;100857.25;;;4.76;54.58
32735;BME280;19112;51.076;3.706;2024-01-16T10:33:57;100774.16;;;4.32;54.27
32735;BME280;19112;51.076;3.706;2024-01-16T10:36:24;100814.22;;;4.66;54.14
32735;BME280;19112;51.076;3.706;2024-01-16T10:38:51;100691.72;;;3.98;54.16
32735;BME280;19112;51.076;3.706;2024-01-16T10:41:23;100892.38;;;5.15;54.19
32735;BME280;19112;51.076;3.706;2024-01-16T10:44:05;100795.56;;;4.73;53.78
32735;BME280;19112;51.076;3.706;2024-01-16T10:46:35;100812.50;;;4.82;53.86
32735;BME280;19112;51.076;3.706;2024-01-16T10:49:03;100746.88;;;4.55;54.08
32735;BME280;19112;51.076;3.706;2024-01-16T10:51:31;100783.47;;;4.74;53.01
32735;BME280;19112;51.076;3.706;2024-01-16T10:54:05;100714.66;;;4.53;53.65
32735;BME280;19112;51.076;3.706;2024-01-16T10:56:33;100636.34;;;3.99;53.23
32735;BME280;19112;51.076;3.706;2024-01-16T11:01:51;100863.00;;;5.33;52.46
32735;BME280;19112;51.076;3.706;2024-01-16T11:04:20;100835.19;;;5.00;53.07
32735;BME280;19112;51.076;3.706;2024-01-16T11:06:56;100876.03;;;5.49;52.93
32735;BME280;19112;51.076;3.706;2024-01-16T11:09:23;100798.88;;;5.02;52.82
32735;BME280;19112;51.076;3.706;2024-01-16T11:11:50;100850.13;;;5.36;52.60
32735;BME280;19112;51.076;3.706;2024-01-16T11:14:20;100741.19;;;4.78;52.38
32735;BME280;19112;51.076;3.706;2024-01-16T11:16:48;100872.09;;;5.57;52.46
32735;BME280;19112;51.076;3.706;2024-01-16T11:19:16;100781.50;;;5.01;51.98
32735;BME280;19112;51.076;3.706;2024-01-16T11:21:43;100795.16;;;5.13;51.39
32735;BME280;19112;51.076;3.706;2024-01-16T11:24:09;100819.97;;;5.39;52.23
32735;BME280;19112;51.076;3.706;2024-01-16T11:26:40;100732.44;;;4.92;52.01
32735;BME280;19112;51.076;3.706;2024-01-16T11:31:58;100697.88;;;4.62;51.40
32735;BME280;19112;51.076;3.706;2024-01-16T11:37:28;100812.06;;;5.54;51.76
32735;BME280;19112;51.076;3.706;2024-01-16T11:42:44;100836.28;;;5.69;51.01
32735;BME280;19112;51.076;3.706;2024-01-16T11:50:35;100742.59;;;5.37;50.94
32735;BME280;19112;51.076;3.706;2024-01-16T11:53:01;100834.09;;;5.93;51.39
32735;BME280;19112;51.076;3.706;2024-01-16T11:55:35;100787.31;;;5.62;51.19
32735;BME280;19112;51.076;3.706;2024-01-16T12:01:10;100751.38;;;5.55;51.56
32735;BME280;19112;51.076;3.706;2024-01-16T12:03:37;100824.06;;;6.01;51.54
32735;BME280;19112;51.076;3.706;2024-01-16T12:06:04;100783.38;;;5.87;51.80
32735;BME280;19112;51.076;3.706;2024-01-16T12:08:32;100791.53;;;5.93;51.57
32735;BME280;19112;51.076;3.706;2024-01-16T12:10:58;100696.56;;;5.36;50.84
32735;BME280;19112;51.076;3.706;2024-01-16T12:13:25;100811.50;;;6.10;50.85
32735;BME280;19112;51.076;3.706;2024-01-16T12:16:04;100783.38;;;5.87;51.02
32735;BME280;19112;51.076;3.706;2024-01-16T12:18:30;100812.34;;;6.09;50.90
32735;BME280;19112;51.076;3.706;2024-01-16T12:20:56;100812.16;;;6.06;50.82
32735;BME280;19112;51.076;3.706;2024-01-16T12:23:24;100656.03;;;5.23;50.79
32735;BME280;19112;51.076;3.706;2024-01-16T12:25:53;100814.72;;;6.22;50.81
32735;BME280;19112;51.076;3.706;2024-01-16T12:28:21;100814.28;;;6.31;50.28
32735;BME280;19112;51.076;3.706;2024-01-16T12:30:50;100669.13;;;5.42;50.33
32735;BME280;19112;51.076;3.706;2024-01-16T12:33:22;100815.72;;;6.24;50.44
32735;BME280;19112;51.076;3.706;2024-01-16T12:35:48;100767.88;;;6.06;50.17
32735;BME280;19112;51.076;3.706;2024-01-16T12:38:15;100727.97;;;5.91;50.27
32735;BME280;19112;51.076;3.706;2024-01-16T12:40:49;100735.19;;;5.95;49.90
32735;BME280;19112;51.076;3.706;2024-01-16T12:43:20;100791.06;;;6.36;50.33
32735;BME280;19112;51.076;3.706;2024-01-16T12:45:46;100791.19;;;6.39;49.88
32735;BME280;19112;51.076;3.706;2024-01-16T12:48:12;100789.63;;;6.42;49.65
32735;BME280;19112;51.076;3.706;2024-01-16T12:50:38;100788.91;;;6.45;49.40
32735;BME280;19112;51.076;3.706;2024-01-16T12:53:09;100782.09;;;6.48;49.25
32735;BME280;19112;51.076;3.706;2024-01-16T12:55:37;100780.63;;;6.53;49.33
32735;BME280;19112;51.076;3.706;2024-01-16T12:58:21;100782.41;;;6.54;49.21
32735;BME280;19112;51.076;3.706;2024-01-16T13:00:51;100731.47;;;6.25;49.32
32735;BME280;19112;51.076;3.706;2024-01-16T13:03:23;100680.03;;;6.03;49.20
32735;BME280;19112;51.076;3.706;2024-01-16T13:06:01;100648.94;;;5.90;49.09
32735;BME280;19112;51.076;3.706;2024-01-16T13:08:27;100574.94;;;5.49;49.03
32735;BME280;19112;51.076;3.706;2024-01-16T13:11:07;100512.31;;;5.29;48.75
32735;BME280;19112;51.076;3.706;2024-01-16T13:13:34;100487.53;;;5.01;48.38
32735;BME280;19112;51.076;3.706;2024-01-16T13:16:01;100734.28;;;6.48;48.46
32735;BME280;19112;51.076;3.706;2024-01-16T13:18:29;100651.97;;;5.98;48.13